Time;durP1;ratioP1;P1;durP2;ratioP2;P2;SDS_P1;SDS_P2;PMS_P1;PMS_P2;Temp;Humidity;BMP_temperature;BMP_pressure;BME280_temperature;BME280_humidity;BME280_pressure;Samples;Min_cycle;Max_cycle;Signal;HPM_P1;HPM_P2
2023/11/30 00:00:23;;;;;;;9.32;4.88;;;2.80;99.90;;;;;;5053492;28;20438;-79
2023/11/30 00:02:50;;;;;;;11.98;4.88;;;2.80;99.90;;;;;;5051758;28;20444;-78
2023/11/30 00:05:16;;;;;;;9.93;5.70;;;2.70;99.90;;;;;;5052959;28;20041;-78
2023/11/30 00:07:47;;;;;;;8.57;5.07;;;2.70;99.90;;;;;;5031763;28;20049;-79
2023/11/30 00:10:14;;;;;;;8.75;5.75;;;2.80;99.90;;;;;;5056689;28;20040;-78
2023/11/30 00:12:41;;;;;;;8.15;6.13;;;2.80;99.90;;;;;;5048704;28;20520;-78
2023/11/30 00:15:08;;;;;;;8.25;5.70;;;2.80;99.90;;;;;;5038877;28;20046;-78
2023/11/30 00:17:34;;;;;;;12.13;5.75;;;2.80;99.90;;;;;;5033294;28;20055;-80
2023/11/30 00:20:01;;;;;;;11.32;5.38;;;2.80;99.90;;;;;;5037949;28;20052;-79
2023/11/30 00:22:28;;;;;;;29.52;11.70;;;2.80;99.90;;;;;;5032898;28;20103;-79
2023/11/30 00:24:54;;;;;;;23.58;9.07;;;2.90;99.90;;;;;;5046257;28;20049;-78
2023/11/30 00:27:21;;;;;;;11.65;6.63;;;2.90;99.90;;;;;;5051346;28;20087;-80
2023/11/30 00:29:48;;;;;;;9.68;5.63;;;2.90;99.90;;;;;;5050951;28;20052;-77
2023/11/30 00:32:15;;;;;;;9.40;5.13;;;2.90;99.90;;;;;;5054330;28;20104;-79
2023/11/30 00:34:41;;;;;;;8.25;5.60;;;2.90;99.90;;;;;;5026554;28;20116;-81
2023/11/30 00:37:08;;;;;;;9.10;5.50;;;2.90;99.90;;;;;;5056977;28;20036;-82
2023/11/30 00:39:35;;;;;;;8.23;5.40;;;2.90;99.90;;;;;;5055550;28;20049;-79
2023/11/30 00:42:01;;;;;;;9.60;6.05;;;2.90;99.90;;;;;;5030282;28;20057;-82
2023/11/30 00:44:28;;;;;;;7.10;4.80;;;2.90;99.90;;;;;;5055046;28;20052;-77
2023/11/30 00:46:55;;;;;;;8.93;5.63;;;2.90;99.90;;;;;;5028039;28;20046;-78
2023/11/30 00:49:22;;;;;;;8.65;4.85;;;2.90;99.90;;;;;;5045748;28;20500;-80
2023/11/30 00:51:48;;;;;;;6.15;4.65;;;2.90;99.90;;;;;;5049558;28;20057;-80
2023/11/30 00:54:15;;;;;;;7.43;4.38;;;2.90;99.90;;;;;;5049071;28;20084;-79
2023/11/30 00:56:42;;;;;;;6.60;4.90;;;2.90;99.90;;;;;;5046598;28;20509;-78
2023/11/30 00:59:09;;;;;;;8.52;4.57;;;2.90;99.90;;;;;;5036565;28;20052;-80
2023/11/30 01:01:35;;;;;;;6.85;4.88;;;2.90;99.90;;;;;;5048686;28;20575;-78
2023/11/30 01:04:02;;;;;;;5.97;4.45;;;2.90;99.90;;;;;;5049422;28;20088;-79
2023/11/30 01:06:30;;;;;;;6.15;4.30;;;2.90;99.90;;;;;;5045850;28;20080;-80
2023/11/30 01:08:57;;;;;;;8.50;4.72;;;2.90;99.90;;;;;;5051298;28;20045;-80
2023/11/30 01:11:23;;;;;;;7.25;4.82;;;2.90;99.90;;;;;;5043034;28;20040;-78
2023/11/30 01:13:50;;;;;;;9.10;5.15;;;2.90;99.90;;;;;;5049133;28;20085;-80
2023/11/30 01:16:17;;;;;;;7.18;4.43;;;2.80;99.90;;;;;;5045246;28;20049;-80
2023/11/30 01:18:43;;;;;;;7.32;4.60;;;2.80;99.90;;;;;;5051194;28;20157;-80
2023/11/30 01:21:10;;;;;;;8.25;5.82;;;2.80;99.90;;;;;;5051770;28;20047;-76
2023/11/30 01:23:37;;;;;;;10.30;5.70;;;2.80;99.90;;;;;;5056795;28;20114;-78
2023/11/30 01:26:04;;;;;;;9.77;5.40;;;2.80;99.90;;;;;;5049052;28;20044;-80
2023/11/30 01:28:31;;;;;;;7.53;5.28;;;2.90;99.90;;;;;;5046571;28;20094;-81
2023/11/30 01:30:58;;;;;;;6.57;5.18;;;2.80;99.90;;;;;;5046436;28;20095;-77
2023/11/30 01:33:27;;;;;;;8.57;5.07;;;2.90;99.90;;;;;;5047631;28;20048;-77
2023/11/30 01:35:54;;;;;;;8.07;4.57;;;2.90;99.90;;;;;;5050921;28;20151;-78
2023/11/30 01:38:20;;;;;;;8.57;5.15;;;2.90;99.90;;;;;;5033497;28;20037;-78
2023/11/30 01:40:47;;;;;;;10.70;4.93;;;2.90;99.90;;;;;;5048451;28;20045;-79
2023/11/30 01:43:18;;;;;;;8.93;4.93;;;2.90;99.90;;;;;;5047328;28;20045;-79
2023/11/30 01:45:45;;;;;;;8.57;5.03;;;2.90;99.90;;;;;;5044012;28;20102;-77
2023/11/30 01:48:12;;;;;;;7.97;5.32;;;2.90;99.90;;;;;;5046947;28;20037;-78
2023/11/30 01:50:39;;;;;;;9.38;5.20;;;2.90;99.90;;;;;;5052437;28;20051;-77
2023/11/30 01:53:07;;;;;;;8.52;4.97;;;2.90;99.90;;;;;;5049122;28;20467;-81
2023/11/30 01:55:36;;;;;;;5.68;4.30;;;3.00;99.90;;;;;;5051265;28;20072;-78
2023/11/30 01:58:04;;;;;;;7.30;4.95;;;3.00;99.90;;;;;;5048102;28;20164;-78
2023/11/30 02:00:31;;;;;;;6.97;5.38;;;3.00;99.90;;;;;;5050491;28;20053;-78
2023/11/30 02:02:59;;;;;;;9.05;4.88;;;3.00;99.90;;;;;;5046324;28;20045;-80
2023/11/30 02:05:25;;;;;;;7.35;5.25;;;3.00;99.90;;;;;;5037246;28;20049;-78
2023/11/30 02:07:52;;;;;;;7.93;5.22;;;3.00;99.90;;;;;;5052195;28;20049;-78
2023/11/30 02:10:19;;;;;;;10.38;5.47;;;3.00;99.90;;;;;;5051718;28;20090;-80
2023/11/30 02:12:46;;;;;;;7.93;4.90;;;3.00;99.90;;;;;;5038101;28;20045;-78
2023/11/30 02:15:13;;;;;;;6.60;4.28;;;3.00;99.90;;;;;;5039557;28;20562;-79
2023/11/30 02:17:40;;;;;;;7.05;4.38;;;3.00;99.90;;;;;;5034111;28;20470;-80
2023/11/30 02:20:07;;;;;;;6.38;4.53;;;3.10;99.90;;;;;;5050298;28;20268;-78
2023/11/30 02:22:34;;;;;;;7.07;4.05;;;3.10;99.90;;;;;;5035782;28;20459;-79
2023/11/30 02:25:01;;;;;;;10.80;4.03;;;3.10;99.90;;;;;;5051156;28;20052;-78
2023/11/30 02:27:27;;;;;;;6.50;3.92;;;3.10;99.90;;;;;;5052906;28;20191;-78
2023/11/30 02:29:54;;;;;;;4.55;3.33;;;3.10;99.90;;;;;;5031928;28;20076;-78
2023/11/30 02:32:21;;;;;;;7.18;4.07;;;3.10;99.90;;;;;;5052738;28;20045;-77
2023/11/30 02:34:48;;;;;;;4.70;3.35;;;3.10;99.90;;;;;;5049005;28;20052;-80
2023/11/30 02:37:14;;;;;;;5.07;3.80;;;3.20;99.90;;;;;;5038735;28;20057;-79
2023/11/30 02:39:41;;;;;;;5.10;3.83;;;3.20;99.90;;;;;;5035321;28;20398;-78
2023/11/30 02:42:08;;;;;;;5.05;3.83;;;3.20;99.90;;;;;;5048380;28;20081;-80
2023/11/30 02:44:34;;;;;;;8.82;3.65;;;3.20;99.90;;;;;;5051462;28;20047;-78
2023/11/30 02:47:01;;;;;;;5.13;3.72;;;3.20;99.90;;;;;;5047869;28;20096;-77
2023/11/30 02:49:28;;;;;;;6.68;3.58;;;3.30;99.90;;;;;;5051205;28;20052;-78
2023/11/30 02:51:56;;;;;;;6.07;3.38;;;3.20;99.90;;;;;;5047188;28;20053;-79
2023/11/30 02:54:23;;;;;;;6.70;3.60;;;3.30;99.90;;;;;;5036544;28;20503;-76
2023/11/30 02:56:49;;;;;;;6.35;3.45;;;3.30;99.90;;;;;;5050539;28;20060;-79
2023/11/30 02:59:16;;;;;;;4.40;3.00;;;3.30;99.90;;;;;;5032690;28;20060;-80
2023/11/30 03:01:47;;;;;;;4.10;3.30;;;3.30;99.90;;;;;;5031811;28;20079;-78
2023/11/30 03:04:14;;;;;;;7.45;3.10;;;3.30;99.90;;;;;;5035425;28;20144;-77
2023/11/30 03:06:41;;;;;;;5.40;3.03;;;3.30;99.90;;;;;;5049062;28;20044;-81
2023/11/30 03:09:08;;;;;;;3.00;2.35;;;3.30;99.90;;;;;;5029394;28;20046;-80
2023/11/30 03:11:35;;;;;;;6.15;2.40;;;3.30;99.90;;;;;;5048992;28;20045;-77
2023/11/30 03:14:02;;;;;;;3.35;2.45;;;3.30;99.90;;;;;;5054471;28;20056;-80
2023/11/30 03:16:29;;;;;;;6.15;3.13;;;3.30;99.90;;;;;;5036351;28;20045;-79
2023/11/30 03:18:56;;;;;;;4.15;3.00;;;3.30;99.90;;;;;;5048127;28;20493;-80
2023/11/30 03:21:42;;;;;;;3.97;2.33;;;3.30;99.90;;;;;;5051476;28;20114;-79
2023/11/30 03:24:08;;;;;;;3.03;2.25;;;3.30;99.90;;;;;;5052817;28;20045;-78
2023/11/30 03:26:35;;;;;;;5.72;2.78;;;3.30;99.90;;;;;;5052826;28;20132;-80
2023/11/30 03:29:02;;;;;;;2.47;2.28;;;3.30;99.90;;;;;;5048873;28;20078;-80
2023/11/30 03:31:29;;;;;;;3.65;2.30;;;3.30;99.90;;;;;;5035199;28;20099;-78
2023/11/30 03:33:56;;;;;;;3.17;2.42;;;3.30;99.90;;;;;;5049222;28;20619;-79
2023/11/30 03:36:23;;;;;;;2.85;2.28;;;3.30;99.90;;;;;;5048793;28;20037;-79
2023/11/30 03:38:55;;;;;;;3.55;2.15;;;3.30;99.90;;;;;;5049580;28;20041;-79
2023/11/30 03:41:22;;;;;;;4.78;2.40;;;3.30;99.90;;;;;;5051788;28;20041;-79
2023/11/30 03:43:49;;;;;;;4.82;2.90;;;3.30;99.90;;;;;;5050144;28;20452;-80
2023/11/30 03:46:16;;;;;;;4.32;2.60;;;3.40;99.90;;;;;;5038103;28;20098;-80
2023/11/30 03:48:43;;;;;;;4.55;2.75;;;3.30;99.90;;;;;;5033054;28;20049;-78
2023/11/30 03:51:11;;;;;;;5.30;3.15;;;3.40;99.90;;;;;;5045798;28;20463;-79
2023/11/30 03:53:38;;;;;;;7.88;4.05;;;3.40;99.90;;;;;;5050162;28;20500;-80
2023/11/30 03:56:05;;;;;;;4.68;3.60;;;3.40;99.90;;;;;;5046102;28;20336;-80
2023/11/30 03:58:32;;;;;;;6.28;3.38;;;3.40;99.90;;;;;;5053971;28;20056;-78
2023/11/30 04:00:59;;;;;;;5.05;3.75;;;3.40;99.90;;;;;;5045765;28;20057;-81
2023/11/30 04:03:26;;;;;;;5.05;3.63;;;3.40;99.90;;;;;;5053387;28;20064;-79
2023/11/30 04:05:53;;;;;;;4.78;3.13;;;3.40;99.90;;;;;;5045264;28;20045;-78
2023/11/30 04:08:20;;;;;;;4.68;2.78;;;3.40;99.90;;;;;;5049323;28;20053;-81
2023/11/30 04:10:47;;;;;;;4.45;2.33;;;3.40;99.90;;;;;;5051285;28;20470;-81
2023/11/30 04:13:15;;;;;;;5.55;3.20;;;3.40;99.90;;;;;;5056985;28;20111;-77
2023/11/30 04:15:42;;;;;;;3.80;2.88;;;3.40;99.90;;;;;;5059096;28;20110;-78
2023/11/30 04:18:09;;;;;;;4.25;3.35;;;3.40;99.90;;;;;;5035013;28;20049;-80
2023/11/30 04:20:36;;;;;;;4.28;2.95;;;3.40;99.90;;;;;;5047999;28;20049;-80
2023/11/30 04:23:03;;;;;;;4.57;2.95;;;3.50;99.90;;;;;;5035483;28;20049;-78
2023/11/30 04:25:30;;;;;;;7.15;2.95;;;3.50;99.90;;;;;;5045850;28;20479;-80
2023/11/30 04:27:56;;;;;;;4.18;3.05;;;3.50;99.90;;;;;;5051174;28;20071;-77
2023/11/30 04:30:23;;;;;;;4.60;3.38;;;3.40;99.90;;;;;;5035388;28;20452;-79
2023/11/30 04:32:50;;;;;;;6.03;3.75;;;3.40;99.90;;;;;;5047456;28;20045;-79
2023/11/30 04:35:17;;;;;;;6.95;4.13;;;3.30;99.90;;;;;;5038593;28;20059;-78
2023/11/30 04:37:44;;;;;;;5.03;4.18;;;3.30;99.90;;;;;;5047603;28;20077;-78
2023/11/30 04:40:12;;;;;;;7.68;4.50;;;3.30;99.90;;;;;;5053022;28;20110;-79
2023/11/30 04:42:39;;;;;;;6.03;4.57;;;3.30;99.90;;;;;;5042924;28;20132;-80
2023/11/30 04:45:06;;;;;;;7.72;5.28;;;3.20;99.90;;;;;;5029740;28;20042;-78
2023/11/30 04:47:33;;;;;;;6.95;5.50;;;3.20;99.90;;;;;;5052327;28;20044;-79
2023/11/30 04:49:59;;;;;;;8.88;5.55;;;3.20;99.90;;;;;;5032700;28;20128;-78
2023/11/30 04:52:26;;;;;;;6.30;5.47;;;3.20;99.90;;;;;;5051360;28;20060;-82
2023/11/30 04:54:53;;;;;;;7.50;4.90;;;3.20;99.90;;;;;;5039583;28;20101;-79
2023/11/30 04:57:20;;;;;;;8.75;6.10;;;3.20;99.90;;;;;;5047653;28;20045;-79
2023/11/30 04:59:46;;;;;;;9.00;5.55;;;3.30;99.90;;;;;;5043900;28;20059;-82
2023/11/30 05:02:13;;;;;;;6.68;5.38;;;3.30;99.90;;;;;;5062551;28;20057;-80
2023/11/30 05:04:40;;;;;;;6.93;5.18;;;3.30;99.90;;;;;;5053157;28;20049;-80
2023/11/30 05:07:07;;;;;;;9.75;6.28;;;3.30;99.90;;;;;;5049306;28;20053;-80
2023/11/30 05:09:34;;;;;;;9.38;5.85;;;3.30;99.90;;;;;;5053095;28;20053;-80
2023/11/30 05:12:01;;;;;;;10.07;6.25;;;3.20;99.90;;;;;;5054321;28;20115;-76
2023/11/30 05:14:27;;;;;;;7.80;5.90;;;3.10;99.90;;;;;;5049636;28;20087;-78
2023/11/30 05:16:54;;;;;;;13.77;6.43;;;3.10;99.90;;;;;;5046469;28;20049;-78
2023/11/30 05:19:21;;;;;;;8.25;6.20;;;3.10;99.90;;;;;;5048654;28;20127;-79
2023/11/30 05:21:48;;;;;;;9.95;6.15;;;3.10;99.90;;;;;;5051886;28;20060;-80
2023/11/30 05:24:16;;;;;;;10.43;7.22;;;3.10;99.90;;;;;;5028884;28;20107;-78
2023/11/30 05:26:43;;;;;;;12.02;6.47;;;3.10;99.90;;;;;;5049953;28;20500;-77
2023/11/30 05:29:10;;;;;;;10.90;6.30;;;3.10;99.90;;;;;;5048127;28;20095;-80
2023/11/30 05:31:36;;;;;;;9.00;7.03;;;3.10;99.90;;;;;;5050652;28;20094;-79
2023/11/30 05:34:03;;;;;;;9.50;5.65;;;3.10;99.90;;;;;;5045792;28;20049;-78
2023/11/30 05:36:30;;;;;;;8.13;6.28;;;3.20;99.90;;;;;;5047416;28;20420;-79
2023/11/30 05:38:57;;;;;;;10.05;6.47;;;3.20;99.90;;;;;;5031401;28;20121;-79
2023/11/30 05:41:24;;;;;;;9.05;6.57;;;3.30;99.90;;;;;;5051521;28;20056;-78
2023/11/30 05:43:50;;;;;;;11.65;6.90;;;3.30;99.90;;;;;;5054013;28;20049;-80
2023/11/30 05:46:20;;;;;;;14.93;8.25;;;3.30;99.90;;;;;;5028777;28;20045;-78
2023/11/30 05:48:47;;;;;;;14.75;6.82;;;3.30;99.90;;;;;;5055929;28;20041;-80
2023/11/30 05:51:14;;;;;;;13.07;7.13;;;3.30;99.90;;;;;;5045157;28;20055;-79
2023/11/30 05:53:41;;;;;;;12.23;7.50;;;3.30;99.90;;;;;;5054061;28;20116;-79
2023/11/30 05:56:08;;;;;;;11.18;7.40;;;3.30;99.90;;;;;;5050340;28;20047;-80
2023/11/30 05:58:35;;;;;;;12.02;8.15;;;3.30;99.90;;;;;;5052005;28;20054;-78
2023/11/30 06:01:02;;;;;;;11.50;7.88;;;3.30;99.90;;;;;;5033034;28;20049;-78
2023/11/30 06:03:29;;;;;;;17.90;8.50;;;3.30;99.90;;;;;;5053586;28;20049;-81
2023/11/30 06:05:56;;;;;;;16.67;7.93;;;3.30;99.90;;;;;;5053645;28;20092;-80
2023/11/30 06:08:24;;;;;;;15.60;7.93;;;3.30;99.90;;;;;;5052854;28;20044;-76
2023/11/30 06:10:51;;;;;;;13.57;8.85;;;3.40;99.90;;;;;;5051803;28;20063;-80
2023/11/30 06:13:18;;;;;;;13.52;9.55;;;3.40;99.90;;;;;;5058390;28;20071;-78
2023/11/30 06:15:45;;;;;;;13.68;9.10;;;3.40;99.90;;;;;;5055335;28;20124;-78
2023/11/30 06:18:12;;;;;;;14.40;9.85;;;3.40;99.90;;;;;;5048047;28;20049;-80
2023/11/30 06:20:39;;;;;;;16.73;11.25;;;3.40;99.90;;;;;;5055449;28;20053;-77
2023/11/30 06:23:05;;;;;;;15.93;9.45;;;3.40;99.90;;;;;;5057555;28;20073;-81
2023/11/30 06:25:32;;;;;;;19.58;11.63;;;3.50;99.90;;;;;;5053495;28;20128;-79
2023/11/30 06:27:59;;;;;;;18.52;12.68;;;3.50;99.90;;;;;;5030513;28;20045;-77
2023/11/30 06:30:26;;;;;;;17.92;13.68;;;3.50;99.90;;;;;;5051309;28;20065;-80
2023/11/30 06:32:53;;;;;;;17.15;11.43;;;3.50;99.90;;;;;;5052651;28;20424;-78
2023/11/30 06:35:20;;;;;;;13.75;10.07;;;3.50;99.90;;;;;;5051559;28;20436;-78
2023/11/30 06:37:47;;;;;;;14.43;10.07;;;3.50;99.90;;;;;;5050254;28;20428;-78
2023/11/30 06:40:14;;;;;;;18.45;11.55;;;3.50;99.90;;;;;;5056261;28;20508;-79
2023/11/30 06:42:40;;;;;;;14.60;10.00;;;3.50;99.90;;;;;;5052758;28;20536;-79
2023/11/30 06:45:08;;;;;;;16.33;10.02;;;3.50;99.90;;;;;;5045220;28;20111;-79
2023/11/30 06:47:34;;;;;;;17.55;10.02;;;3.60;99.90;;;;;;5055064;28;20041;-81
2023/11/30 06:50:01;;;;;;;11.85;8.90;;;3.50;99.90;;;;;;5052419;28;20049;-78
2023/11/30 06:52:28;;;;;;;13.43;9.75;;;3.60;99.90;;;;;;5054758;28;20045;-80
2023/11/30 06:54:55;;;;;;;17.17;11.32;;;3.60;99.90;;;;;;5051197;28;20048;-81
2023/11/30 06:57:22;;;;;;;16.55;10.75;;;3.60;99.90;;;;;;5055956;28;20044;-79
2023/11/30 06:59:48;;;;;;;16.58;10.52;;;3.50;99.90;;;;;;5054709;28;20055;-79
2023/11/30 07:02:15;;;;;;;14.70;10.55;;;3.50;99.90;;;;;;5056222;28;20052;-80
2023/11/30 07:04:42;;;;;;;19.02;11.07;;;3.50;99.90;;;;;;5056137;28;20041;-78
2023/11/30 07:07:09;;;;;;;19.10;11.43;;;3.50;99.90;;;;;;5059776;28;20441;-76
2023/11/30 07:09:49;;;;;;;15.45;10.07;;;3.50;99.90;;;;;;5034327;28;20084;-81
2023/11/30 07:12:16;;;;;;;16.63;11.38;;;3.40;99.90;;;;;;5036599;28;20041;-78
2023/11/30 07:14:43;;;;;;;13.95;10.07;;;3.30;99.90;;;;;;5052239;28;20041;-80
2023/11/30 07:17:17;;;;;;;14.90;11.27;;;3.30;99.90;;;;;;5035404;28;20040;-79
2023/11/30 07:19:44;;;;;;;15.88;10.75;;;3.20;99.90;;;;;;5051669;28;20468;-79
2023/11/30 07:22:11;;;;;;;17.90;11.40;;;3.20;99.90;;;;;;5054930;28;20103;-80
2023/11/30 07:24:38;;;;;;;15.27;10.88;;;3.20;99.90;;;;;;5052430;28;20084;-81
2023/11/30 07:27:04;;;;;;;18.20;11.70;;;3.20;99.90;;;;;;5049714;28;20067;-79
2023/11/30 07:29:33;;;;;;;15.27;10.68;;;3.20;99.90;;;;;;5054015;28;20103;-78
2023/11/30 07:32:00;;;;;;;19.27;12.43;;;3.20;99.90;;;;;;5033032;28;20049;-80
2023/11/30 07:34:27;;;;;;;18.92;11.40;;;3.20;99.90;;;;;;5051745;28;20075;-78
2023/11/30 07:36:53;;;;;;;18.05;12.18;;;3.20;99.90;;;;;;5052454;28;20049;-77
2023/11/30 07:39:20;;;;;;;18.95;11.80;;;3.20;99.90;;;;;;5051668;28;20053;-82
2023/11/30 07:41:48;;;;;;;16.52;11.68;;;3.20;99.90;;;;;;5048230;28;20068;-77
2023/11/30 07:44:16;;;;;;;15.40;11.68;;;3.30;99.90;;;;;;5047389;28;20064;-79
2023/11/30 07:46:44;;;;;;;16.05;11.05;;;3.30;99.90;;;;;;5032726;28;20090;-78
2023/11/30 07:49:11;;;;;;;17.15;12.05;;;3.30;99.90;;;;;;5050171;28;20098;-80
2023/11/30 07:51:38;;;;;;;17.65;12.10;;;3.30;99.90;;;;;;5052549;28;20143;-80
2023/11/30 07:54:05;;;;;;;19.77;11.70;;;3.30;99.90;;;;;;5052416;28;20071;-78
2023/11/30 07:56:32;;;;;;;16.70;12.00;;;3.40;99.90;;;;;;5050257;28;20049;-78
2023/11/30 07:59:00;;;;;;;23.77;13.95;;;3.40;99.90;;;;;;5050235;28;20045;-80
2023/11/30 08:01:29;;;;;;;17.38;13.23;;;3.30;99.90;;;;;;5033313;28;20052;-78
2023/11/30 08:03:56;;;;;;;19.63;14.38;;;3.30;99.90;;;;;;5048746;28;20092;-79
2023/11/30 08:06:23;;;;;;;21.38;13.52;;;3.30;99.90;;;;;;5053848;28;20091;-78
2023/11/30 08:08:50;;;;;;;21.27;14.70;;;3.20;99.90;;;;;;5052053;28;20041;-79
2023/11/30 08:11:16;;;;;;;23.85;13.77;;;3.30;99.90;;;;;;5031338;28;20049;-78
2023/11/30 08:13:44;;;;;;;19.83;12.32;;;3.30;99.90;;;;;;5047796;28;20041;-80
2023/11/30 08:16:11;;;;;;;18.52;11.65;;;3.20;99.90;;;;;;5050218;28;20052;-79
2023/11/30 08:18:38;;;;;;;17.48;11.75;;;3.20;99.90;;;;;;5053509;28;20057;-80
2023/11/30 08:21:05;;;;;;;17.35;12.00;;;3.20;99.90;;;;;;5027620;28;20049;-79
2023/11/30 08:23:33;;;;;;;18.60;12.15;;;3.20;99.90;;;;;;5029073;28;20053;-80
2023/11/30 08:26:02;;;;;;;17.95;11.60;;;3.20;99.90;;;;;;5050092;28;20037;-76
2023/11/30 08:28:29;;;;;;;16.95;11.70;;;3.20;99.90;;;;;;5052858;28;20045;-79
2023/11/30 08:30:56;;;;;;;14.23;10.35;;;3.30;99.90;;;;;;5052042;28;20094;-80
2023/11/30 08:33:24;;;;;;;20.42;11.73;;;3.20;99.90;;;;;;5052233;28;20045;-78
2023/11/30 08:35:50;;;;;;;17.80;12.27;;;3.30;99.90;;;;;;5054976;28;20170;-77
2023/11/30 08:38:17;;;;;;;16.65;12.13;;;3.30;99.90;;;;;;5049359;28;20049;-79
2023/11/30 08:40:44;;;;;;;17.20;12.10;;;3.30;99.90;;;;;;5048969;28;20063;-78
2023/11/30 08:43:11;;;;;;;16.45;11.98;;;3.30;99.90;;;;;;5051001;28;20463;-80
2023/11/30 08:45:37;;;;;;;15.45;11.02;;;3.30;99.90;;;;;;5047984;28;20041;-80
2023/11/30 08:48:06;;;;;;;19.08;12.10;;;3.30;99.90;;;;;;5053979;28;20152;-78
2023/11/30 08:50:33;;;;;;;14.25;10.35;;;3.30;99.90;;;;;;5044346;28;20045;-78
2023/11/30 08:53:00;;;;;;;20.42;12.45;;;3.30;99.90;;;;;;5050693;28;20566;-79
2023/11/30 08:55:27;;;;;;;17.38;11.93;;;3.40;99.90;;;;;;5050160;28;20052;-78
2023/11/30 08:57:54;;;;;;;17.20;12.48;;;3.40;99.90;;;;;;5049441;28;20126;-80
2023/11/30 09:00:21;;;;;;;17.08;12.10;;;3.40;99.90;;;;;;5047338;28;20053;-80
2023/11/30 09:02:48;;;;;;;14.57;11.25;;;3.40;99.90;;;;;;5051581;28;20041;-80
2023/11/30 09:05:15;;;;;;;15.85;11.70;;;3.50;99.90;;;;;;5036643;28;20041;-80
2023/11/30 09:07:42;;;;;;;19.83;12.80;;;3.50;99.90;;;;;;5049928;28;20423;-80
2023/11/30 09:10:09;;;;;;;18.30;13.27;;;3.50;99.90;;;;;;5055497;28;20044;-79
2023/11/30 09:12:36;;;;;;;18.13;12.32;;;3.50;99.90;;;;;;5049854;28;20103;-80
2023/11/30 09:15:08;;;;;;;16.17;11.55;;;3.50;99.90;;;;;;5049596;28;20087;-79
2023/11/30 09:17:35;;;;;;;17.90;12.15;;;3.50;99.90;;;;;;5046843;28;20052;-78
2023/11/30 09:20:05;;;;;;;17.20;12.32;;;3.50;99.90;;;;;;5051765;28;20051;-80
2023/11/30 09:22:32;;;;;;;17.35;12.10;;;3.50;99.90;;;;;;5046932;28;20064;-78
2023/11/30 09:24:59;;;;;;;18.95;13.43;;;3.60;99.90;;;;;;5054958;28;20051;-82
2023/11/30 09:27:26;;;;;;;19.33;12.82;;;3.60;99.90;;;;;;5049606;28;20041;-78
2023/11/30 09:29:53;;;;;;;23.40;13.15;;;3.50;99.90;;;;;;5049585;28;20143;-78
2023/11/30 09:32:22;;;;;;;23.98;13.77;;;3.50;99.90;;;;;;5047128;28;20120;-78
2023/11/30 09:34:49;;;;;;;20.33;13.65;;;3.50;99.90;;;;;;5046618;28;20048;-80
2023/11/30 09:37:16;;;;;;;19.73;13.80;;;3.50;99.90;;;;;;5045518;28;20076;-79
2023/11/30 09:39:44;;;;;;;23.02;13.07;;;3.50;99.90;;;;;;5049818;28;20053;-79
2023/11/30 09:42:15;;;;;;;20.25;14.73;;;3.40;99.90;;;;;;5052967;28;20045;-80
2023/11/30 09:44:43;;;;;;;19.98;13.95;;;3.50;99.90;;;;;;5035171;28;20049;-78
2023/11/30 09:47:10;;;;;;;20.42;14.20;;;3.50;99.90;;;;;;5053515;28;20041;-79
2023/11/30 09:49:38;;;;;;;17.80;13.60;;;3.50;99.90;;;;;;5032359;28;20049;-79
2023/11/30 09:52:05;;;;;;;18.75;13.07;;;3.50;99.90;;;;;;5033917;28;20045;-80
2023/11/30 09:54:32;;;;;;;17.83;12.57;;;3.50;99.90;;;;;;5044571;28;20123;-79
2023/11/30 09:56:59;;;;;;;16.77;12.52;;;3.50;99.90;;;;;;5043231;28;20076;-79
2023/11/30 09:59:29;;;;;;;17.98;13.02;;;3.50;99.90;;;;;;5054985;28;20049;-80
2023/11/30 10:01:58;;;;;;;20.83;12.88;;;3.50;99.90;;;;;;5048814;28;20107;-78
2023/11/30 10:04:31;;;;;;;18.75;12.95;;;3.50;99.90;;;;;;5053596;28;20091;-79
2023/11/30 10:06:58;;;;;;;20.65;12.95;;;3.50;99.90;;;;;;5048929;28;20037;-81
2023/11/30 10:09:24;;;;;;;20.60;13.45;;;3.50;99.90;;;;;;5049094;28;20492;-78
2023/11/30 10:11:52;;;;;;;17.88;12.65;;;3.50;99.90;;;;;;5051671;28;20048;-78
2023/11/30 10:14:19;;;;;;;19.25;13.93;;;3.50;99.90;;;;;;5049873;28;20496;-78
2023/11/30 10:16:45;;;;;;;21.35;13.63;;;3.50;99.90;;;;;;5050060;28;20049;-79
2023/11/30 10:19:13;;;;;;;18.30;13.32;;;3.50;99.90;;;;;;5047648;28;20053;-80
2023/11/30 10:21:41;;;;;;;20.88;14.98;;;3.50;99.90;;;;;;5045106;28;20109;-78
2023/11/30 10:24:09;;;;;;;17.10;12.68;;;3.50;99.90;;;;;;5049528;28;20060;-82
2023/11/30 10:26:37;;;;;;;20.30;13.77;;;3.50;99.90;;;;;;5029409;28;20104;-78
2023/11/30 10:29:06;;;;;;;20.25;13.57;;;3.50;99.90;;;;;;5053859;28;20049;-80
2023/11/30 10:31:37;;;;;;;22.40;14.32;;;3.50;99.90;;;;;;5047422;28;20080;-78
2023/11/30 10:34:11;;;;;;;19.85;14.48;;;3.40;99.90;;;;;;5054970;28;20451;-78
2023/11/30 10:36:43;;;;;;;22.75;14.23;;;3.40;99.90;;;;;;5037090;28;20405;-78
2023/11/30 10:39:18;;;;;;;22.63;14.80;;;3.40;99.90;;;;;;5051508;28;20102;-77
2023/11/30 10:41:55;;;;;;;20.67;14.05;;;3.40;99.90;;;;;;5038443;28;20081;-83
2023/11/30 10:44:27;;;;;;;19.02;13.00;;;3.30;99.90;;;;;;5046766;28;20528;-80
2023/11/30 10:46:59;;;;;;;18.17;12.65;;;3.30;99.90;;;;;;5052486;28;20087;-79
2023/11/30 10:49:27;;;;;;;19.17;13.10;;;3.30;99.90;;;;;;5025257;28;20046;-80
2023/11/30 10:51:59;;;;;;;19.48;13.48;;;3.30;99.90;;;;;;5053125;28;20045;-78
2023/11/30 10:54:35;;;;;;;20.85;13.38;;;3.30;99.90;;;;;;5049355;28;20501;-82
2023/11/30 10:57:03;;;;;;;20.05;12.50;;;3.30;99.90;;;;;;5047250;28;20124;-80
2023/11/30 10:59:31;;;;;;;16.00;12.43;;;3.30;99.90;;;;;;5048425;28;20049;-81
2023/11/30 11:01:58;;;;;;;20.23;13.00;;;3.30;99.90;;;;;;5047734;28;20049;-78
2023/11/30 11:04:29;;;;;;;19.58;12.75;;;3.30;99.90;;;;;;5048352;28;20128;-79
2023/11/30 11:07:12;;;;;;;21.02;14.50;;;3.40;99.90;;;;;;5050495;28;20037;-78
2023/11/30 11:09:44;;;;;;;14.68;11.85;;;3.40;99.90;;;;;;5048731;28;20052;-79
2023/11/30 11:12:25;;;;;;;17.08;11.73;;;3.40;99.90;;;;;;5044329;28;20826;-77
2023/11/30 11:15:11;;;;;;;23.35;16.17;;;3.50;99.90;;;;;;5052848;28;20075;-81
2023/11/30 11:17:49;;;;;;;;;;;3.50;99.90;;;;;;5047155;28;20087;-80
2023/11/30 11:20:28;;;;;;;15.73;11.05;;;3.40;99.90;;;;;;5052537;28;19924;-79
2023/11/30 11:23:19;;;;;;;13.45;10.00;;;3.40;99.90;;;;;;5053835;28;20044;-78
2023/11/30 11:25:46;;;;;;;13.52;9.60;;;3.30;99.90;;;;;;5045635;28;20049;-79
2023/11/30 11:28:16;;;;;;;13.05;9.73;;;3.20;99.90;;;;;;5053071;28;20041;-78
2023/11/30 11:30:46;;;;;;;15.30;11.25;;;3.20;99.90;;;;;;5028850;28;20050;-78
2023/11/30 11:33:16;;;;;;;16.38;12.27;;;3.20;99.90;;;;;;5051975;28;20090;-78
2023/11/30 11:35:43;;;;;;;16.23;11.73;;;3.20;99.90;;;;;;5045259;28;20049;-78
2023/11/30 11:38:10;;;;;;;15.27;11.32;;;3.20;99.90;;;;;;5051531;28;20041;-78
2023/11/30 11:40:41;;;;;;;15.10;11.13;;;3.20;99.90;;;;;;5055485;28;20049;-77
2023/11/30 11:43:08;;;;;;;13.52;10.20;;;3.20;99.90;;;;;;5051112;28;20045;-79
2023/11/30 11:45:39;;;;;;;10.20;8.10;;;3.20;99.90;;;;;;5029310;28;20053;-78
2023/11/30 11:48:09;;;;;;;12.02;9.02;;;3.30;99.90;;;;;;5050197;28;20045;-80
2023/11/30 11:50:36;;;;;;;11.60;8.52;;;3.30;99.90;;;;;;5028906;28;20087;-79
2023/11/30 11:53:03;;;;;;;11.77;8.45;;;3.30;99.90;;;;;;5049907;28;20355;-78
2023/11/30 11:55:30;;;;;;;12.00;8.35;;;3.30;99.90;;;;;;5048026;28;20085;-78
2023/11/30 11:57:57;;;;;;;11.75;9.32;;;3.40;99.90;;;;;;5049196;28;20102;-78
2023/11/30 12:00:25;;;;;;;12.60;9.32;;;3.40;99.90;;;;;;5048983;28;20465;-79
2023/11/30 12:03:04;;;;;;;14.00;9.93;;;3.40;99.90;;;;;;5047149;28;20459;-78
2023/11/30 12:05:31;;;;;;;14.88;9.38;;;3.40;99.90;;;;;;5047200;28;20425;-78
2023/11/30 12:08:00;;;;;;;13.50;10.75;;;3.40;99.90;;;;;;5047797;28;20041;-80
2023/11/30 12:10:30;;;;;;;16.52;10.98;;;3.40;99.90;;;;;;5045384;28;20080;-79
2023/11/30 12:12:58;;;;;;;14.30;10.35;;;3.40;99.90;;;;;;5051081;28;20098;-80
2023/11/30 12:15:28;;;;;;;13.85;10.20;;;3.40;99.90;;;;;;5049234;28;20071;-79
2023/11/30 12:17:55;;;;;;;16.30;10.80;;;3.40;99.90;;;;;;5050411;28;20064;-79
2023/11/30 12:20:22;;;;;;;14.88;11.07;;;3.40;99.90;;;;;;5047480;28;20055;-78
2023/11/30 12:22:49;;;;;;;20.65;12.85;;;3.40;99.90;;;;;;5050251;28;20057;-79
2023/11/30 12:25:16;;;;;;;18.33;12.43;;;3.30;99.90;;;;;;5048046;28;20045;-78
2023/11/30 12:27:43;;;;;;;19.02;13.00;;;3.30;99.90;;;;;;5035750;28;20163;-80
2023/11/30 12:30:10;;;;;;;19.73;12.38;;;3.40;99.90;;;;;;5047695;28;20477;-80
2023/11/30 12:32:38;;;;;;;19.92;13.15;;;3.40;99.90;;;;;;5049600;28;20440;-79
2023/11/30 12:35:06;;;;;;;20.25;13.00;;;3.40;99.90;;;;;;5050756;28;20067;-78
2023/11/30 12:37:36;;;;;;;19.23;12.00;;;3.40;99.90;;;;;;5032483;28;20045;-79
2023/11/30 12:40:03;;;;;;;16.57;11.47;;;3.40;99.90;;;;;;5051168;28;20045;-79
2023/11/30 12:42:30;;;;;;;15.85;11.73;;;3.40;99.90;;;;;;5049375;28;20288;-80
2023/11/30 12:44:58;;;;;;;15.95;11.23;;;3.50;99.90;;;;;;5048972;28;20045;-80
2023/11/30 12:47:25;;;;;;;14.75;10.68;;;3.40;99.90;;;;;;5054652;28;20047;-78